createdAt,value
2023-06-17T00:01:07.006Z,5.10
2023-06-17T00:03:09.106Z,4.35
2023-06-17T00:05:11.351Z,4.20
2023-06-17T00:07:13.489Z,4.35
2023-06-17T00:09:15.649Z,4.00
2023-06-17T00:11:17.640Z,4.78
2023-06-17T00:13:21.046Z,5.25
2023-06-17T00:15:24.037Z,4.63
2023-06-17T00:17:26.042Z,4.95
2023-06-17T00:19:29.385Z,4.95
2023-06-17T00:21:31.744Z,5.22
2023-06-17T00:23:33.621Z,5.53
2023-06-17T00:25:35.685Z,5.03
2023-06-17T00:27:37.669Z,5.25
2023-06-17T00:29:39.599Z,5.10
2023-06-17T00:31:41.496Z,5.05
2023-06-17T00:33:43.451Z,4.70
2023-06-17T00:35:45.437Z,5.03
2023-06-17T00:37:47.807Z,5.05
2023-06-17T00:39:49.862Z,4.93
2023-06-17T00:41:51.973Z,5.32
2023-06-17T00:43:53.877Z,5.00
2023-06-17T00:45:56.249Z,4.95
2023-06-17T00:48:00.718Z,4.93
2023-06-17T00:50:04.201Z,4.30
2023-06-17T00:52:30.995Z,4.80
2023-06-17T00:54:33.406Z,4.60
2023-06-17T00:56:38.330Z,4.32
2023-06-17T00:58:42.409Z,4.70
2023-06-17T01:00:44.369Z,4.78
2023-06-17T01:02:47.715Z,4.78
2023-06-17T01:04:49.998Z,4.28
2023-06-17T01:06:57.199Z,4.57
2023-06-17T01:09:04.230Z,4.47
2023-06-17T01:11:12.181Z,4.45
2023-06-17T01:13:16.548Z,4.03
2023-06-17T01:15:18.863Z,4.00
2023-06-17T01:17:22.071Z,3.70
2023-06-17T01:19:25.983Z,3.58
2023-06-17T01:21:31.087Z,3.88
2023-06-17T01:23:36.387Z,4.30
2023-06-17T01:25:38.939Z,3.25
2023-06-17T01:27:42.656Z,4.30
2023-06-17T01:29:48.378Z,3.80
2023-06-17T01:31:51.841Z,3.50
2023-06-17T01:33:58.522Z,3.60
2023-06-17T01:36:06.421Z,3.22
2023-06-17T01:38:17.074Z,3.25
2023-06-17T01:42:37.171Z,3.55
2023-06-17T01:44:41.270Z,3.88
2023-06-17T01:46:44.536Z,3.20
2023-06-17T01:48:46.939Z,3.67
2023-06-17T01:50:49.007Z,3.13
2023-06-17T01:52:51.223Z,3.10
2023-06-17T01:54:53.476Z,3.00
2023-06-17T01:56:55.646Z,3.25
2023-06-17T01:58:57.725Z,2.78
2023-06-17T02:00:59.836Z,3.10
2023-06-17T02:03:02.195Z,2.95
2023-06-17T02:05:04.785Z,2.60
2023-06-17T02:07:07.254Z,2.75
2023-06-17T02:09:10.254Z,2.78
2023-06-17T02:11:12.983Z,2.90
2023-06-17T02:13:15.142Z,2.85
2023-06-17T02:15:17.885Z,2.63
2023-06-17T02:17:20.117Z,3.22
2023-06-17T02:19:22.872Z,2.45
2023-06-17T02:21:25.105Z,2.80
2023-06-17T02:23:27.576Z,3.03
2023-06-17T02:25:29.764Z,2.47
2023-06-17T02:27:32.030Z,2.50
2023-06-17T02:29:34.202Z,2.80
2023-06-17T02:31:36.473Z,2.35
2023-06-17T02:33:38.594Z,3.00
2023-06-17T02:35:40.787Z,2.28
2023-06-17T02:37:44.712Z,2.30
2023-06-17T02:39:46.794Z,2.30
2023-06-17T02:41:49.264Z,2.50
2023-06-17T02:43:51.662Z,3.30
2023-06-17T02:45:53.734Z,2.58
2023-06-17T02:47:56.256Z,2.65
2023-06-17T02:49:58.397Z,2.35
2023-06-17T02:52:00.614Z,2.65
2023-06-17T02:54:03.351Z,2.80
2023-06-17T02:56:06.063Z,2.50
2023-06-17T02:58:08.297Z,2.58
2023-06-17T03:00:12.262Z,2.72
2023-06-17T03:02:14.300Z,2.30
2023-06-17T03:04:16.412Z,2.65
2023-06-17T03:06:20.473Z,2.17
2023-06-17T03:08:22.539Z,2.33
2023-06-17T03:10:24.800Z,2.30
2023-06-17T03:12:26.993Z,2.47
2023-06-17T03:14:30.554Z,2.58
2023-06-17T03:16:35.421Z,2.22
2023-06-17T03:18:37.701Z,2.17
2023-06-17T03:20:40.113Z,1.92
2023-06-17T03:22:42.612Z,2.00
2023-06-17T03:24:44.727Z,2.30
2023-06-17T03:26:47.007Z,2.03
2023-06-17T03:28:49.097Z,2.03
2023-06-17T03:30:51.198Z,1.90
2023-06-17T03:32:55.195Z,1.85
2023-06-17T03:34:58.417Z,1.92
2023-06-17T03:37:00.611Z,2.08
2023-06-17T03:39:02.689Z,1.88
2023-06-17T03:41:04.844Z,1.65
2023-06-17T03:43:07.079Z,2.28
2023-06-17T03:45:10.237Z,2.15
2023-06-17T03:47:12.287Z,2.20
2023-06-17T03:49:14.308Z,1.92
2023-06-17T03:51:18.255Z,2.13
2023-06-17T03:53:20.467Z,2.25
2023-06-17T03:55:23.885Z,1.85
2023-06-17T03:57:27.164Z,1.65
2023-06-17T03:59:29.370Z,1.90
2023-06-17T04:01:31.961Z,1.92
2023-06-17T04:03:35.930Z,1.85
2023-06-17T04:05:39.406Z,1.60
2023-06-17T04:07:41.472Z,2.00
2023-06-17T04:09:51.220Z,1.77
2023-06-17T04:12:04.932Z,1.60
2023-06-17T04:14:07.276Z,1.90
2023-06-17T04:16:09.316Z,2.30
2023-06-17T04:18:11.692Z,1.90
2023-06-17T04:20:13.938Z,1.70
2023-06-17T04:22:16.159Z,1.70
2023-06-17T04:24:18.540Z,1.70
2023-06-17T04:26:20.617Z,1.73
2023-06-17T04:28:24.490Z,1.85
2023-06-17T04:30:26.685Z,2.13
2023-06-17T04:32:28.789Z,1.88
2023-06-17T04:34:31.277Z,2.72
2023-06-17T04:36:33.939Z,2.05
2023-06-17T04:38:39.038Z,1.92
2023-06-17T04:40:41.134Z,2.08
2023-06-17T04:42:46.673Z,2.20
2023-06-17T04:44:50.428Z,1.70
2023-06-17T04:46:52.665Z,1.98
2023-06-17T04:48:55.339Z,1.88
2023-06-17T04:50:59.343Z,1.88
2023-06-17T04:53:05.470Z,2.03
2023-06-17T04:55:09.219Z,2.00
2023-06-17T04:57:11.669Z,2.05
2023-06-17T04:59:13.886Z,2.08
2023-06-17T05:01:16.124Z,2.55
2023-06-17T05:03:18.215Z,2.08
2023-06-17T05:05:20.424Z,2.20
2023-06-17T05:07:22.762Z,2.28
2023-06-17T05:09:24.930Z,1.60
2023-06-17T05:11:27.976Z,1.88
2023-06-17T05:13:30.227Z,1.63
2023-06-17T05:15:32.307Z,2.15
2023-06-17T05:17:34.432Z,1.88
2023-06-17T05:19:36.352Z,1.80
2023-06-17T05:21:38.402Z,1.98
2023-06-17T05:23:40.478Z,2.15
2023-06-17T05:25:42.484Z,1.90
2023-06-17T05:27:44.894Z,1.70
2023-06-17T05:29:46.903Z,2.28
2023-06-17T05:31:49.241Z,2.10
2023-06-17T05:33:51.236Z,1.95
2023-06-17T05:35:53.436Z,2.22
2023-06-17T05:37:55.538Z,1.90
2023-06-17T05:39:57.498Z,2.33
2023-06-17T05:41:59.587Z,2.10
2023-06-17T05:44:01.658Z,2.13
2023-06-17T05:46:03.759Z,1.77
2023-06-17T05:48:06.094Z,1.80
2023-06-17T05:50:08.474Z,1.80
2023-06-17T05:52:12.159Z,2.15
2023-06-17T05:54:14.191Z,1.92
2023-06-17T05:56:16.109Z,1.88
2023-06-17T05:58:18.365Z,1.45
2023-06-17T06:00:21.159Z,2.05
2023-06-17T06:02:23.986Z,1.63
2023-06-17T06:04:26.057Z,1.80
2023-06-17T06:06:28.074Z,1.70
2023-06-17T06:08:30.278Z,1.52
2023-06-17T06:10:32.362Z,1.80
2023-06-17T06:12:34.779Z,2.10
2023-06-17T06:14:36.805Z,1.60
2023-06-17T06:16:38.883Z,1.95
2023-06-17T06:18:41.153Z,2.03
2023-06-17T06:20:43.498Z,1.75
2023-06-17T06:22:46.103Z,1.77
2023-06-17T06:24:48.168Z,1.75
2023-06-17T06:26:50.197Z,2.10
2023-06-17T06:28:52.276Z,2.22
2023-06-17T06:30:54.283Z,1.98
2023-06-17T06:32:56.345Z,1.73
2023-06-17T06:34:58.558Z,1.80
2023-06-17T06:37:01.223Z,2.00
2023-06-17T06:39:03.319Z,2.33
2023-06-17T06:41:05.354Z,2.03
2023-06-17T06:43:07.513Z,1.52
2023-06-17T06:45:10.073Z,1.85
2023-06-17T06:47:12.275Z,2.10
2023-06-17T06:49:14.268Z,2.15
2023-06-17T06:51:16.407Z,1.70
2023-06-17T06:53:20.642Z,2.33
2023-06-17T06:55:22.608Z,1.92
2023-06-17T06:57:24.670Z,2.10
2023-06-17T06:59:26.846Z,2.40
2023-06-17T07:01:28.886Z,1.73
2023-06-17T07:03:31.028Z,1.55
2023-06-17T07:05:33.059Z,1.95
2023-06-17T07:07:35.056Z,1.95
2023-06-17T07:09:37.108Z,1.60
2023-06-17T07:11:39.369Z,1.80
2023-06-17T07:13:42.455Z,1.65
2023-06-17T07:15:46.616Z,2.08
2023-06-17T07:17:48.916Z,1.88
2023-06-17T07:19:50.889Z,1.85
2023-06-17T07:21:52.968Z,1.67
2023-06-17T07:23:54.979Z,1.73
2023-06-17T07:25:57.063Z,2.53
2023-06-17T07:28:01.140Z,1.48
2023-06-17T07:30:03.417Z,1.80
2023-06-17T07:32:05.690Z,2.30
2023-06-17T07:34:08.051Z,2.00
2023-06-17T07:36:10.165Z,2.20
2023-06-17T07:38:12.164Z,1.90
2023-06-17T07:40:14.853Z,50.40
2023-06-17T07:42:18.079Z,109.80
2023-06-17T07:44:20.238Z,232.95
2023-06-17T07:46:22.508Z,224.00
2023-06-17T07:48:24.647Z,139.82
2023-06-17T07:50:26.799Z,45.28
2023-06-17T07:52:28.889Z,125.57
2023-06-17T07:54:32.159Z,19.00
2023-06-17T07:56:34.150Z,6.28
2023-06-17T07:58:36.321Z,3.13
2023-06-17T08:00:38.449Z,2.45
2023-06-17T08:02:42.181Z,4.50
2023-06-17T08:04:44.457Z,2.85
2023-06-17T08:06:46.915Z,3.38
2023-06-17T08:08:49.145Z,2.70
2023-06-17T08:10:51.210Z,4.35
2023-06-17T08:12:53.334Z,3.42
2023-06-17T08:14:55.364Z,3.70
2023-06-17T08:16:57.430Z,3.17
2023-06-17T08:18:59.557Z,3.80
2023-06-17T08:21:01.962Z,3.05
2023-06-17T08:23:04.378Z,2.83
2023-06-17T08:25:07.291Z,4.40
2023-06-17T08:27:11.268Z,2.42
2023-06-17T08:29:14.757Z,2.67
2023-06-17T08:31:18.007Z,2.67
2023-06-17T08:33:20.273Z,3.92
2023-06-17T08:35:22.278Z,3.10
2023-06-17T08:37:24.399Z,2.33
2023-06-17T08:39:26.558Z,2.83
2023-06-17T08:41:29.514Z,3.33
2023-06-17T08:43:32.573Z,2.53
2023-06-17T08:45:36.490Z,2.35
2023-06-17T08:47:40.511Z,4.28
2023-06-17T08:49:45.625Z,3.40
2023-06-17T08:51:50.414Z,2.83
2023-06-17T08:53:58.607Z,3.08
2023-06-17T08:56:00.918Z,2.47
2023-06-17T08:58:03.966Z,3.33
2023-06-17T09:00:07.568Z,3.83
2023-06-17T09:02:13.370Z,2.38
2023-06-17T09:04:16.032Z,3.45
2023-06-17T09:06:21.676Z,2.42
2023-06-17T09:08:24.854Z,2.92
2023-06-17T09:10:27.299Z,2.65
2023-06-17T09:12:40.282Z,2.40
2023-06-17T09:14:46.523Z,2.70
2023-06-17T09:16:51.084Z,2.50
2023-06-17T09:18:57.442Z,2.80
2023-06-17T09:20:59.742Z,3.10
2023-06-17T09:23:02.343Z,2.13
2023-06-17T09:25:05.666Z,2.83
2023-06-17T09:27:08.962Z,2.20
2023-06-17T09:29:15.396Z,2.90
2023-06-17T09:31:19.922Z,2.85
2023-06-17T09:33:23.412Z,3.72
2023-06-17T09:35:25.848Z,2.80
2023-06-17T09:37:27.985Z,2.70
2023-06-17T09:39:32.945Z,2.67
2023-06-17T09:41:39.093Z,2.70
2023-06-17T09:43:42.969Z,2.58
2023-06-17T09:45:46.285Z,2.60
2023-06-17T09:47:56.751Z,2.83
2023-06-17T09:50:03.717Z,2.53
2023-06-17T09:52:10.636Z,2.75
2023-06-17T09:54:12.846Z,3.13
2023-06-17T09:56:16.102Z,3.42
2023-06-17T09:58:22.335Z,3.22
2023-06-17T10:00:25.955Z,3.05
2023-06-17T10:02:29.292Z,2.63
2023-06-17T10:04:31.732Z,2.88
2023-06-17T10:06:37.901Z,3.33
2023-06-17T10:08:44.656Z,3.25
2023-06-17T10:10:49.479Z,3.88
2023-06-17T10:12:55.735Z,3.38
2023-06-17T10:14:59.990Z,4.13
2023-06-17T10:17:04.510Z,3.60
2023-06-17T10:19:09.658Z,3.35
2023-06-17T10:21:13.856Z,3.75
2023-06-17T10:23:17.651Z,3.20
2023-06-17T10:25:19.818Z,3.50
2023-06-17T10:27:22.822Z,3.33
2023-06-17T10:29:27.156Z,2.90
2023-06-17T10:31:31.838Z,3.40
2023-06-17T10:33:34.129Z,3.00
2023-06-17T10:35:47.244Z,3.47
2023-06-17T10:37:49.976Z,2.92
2023-06-17T10:39:53.627Z,3.20
2023-06-17T10:41:58.914Z,3.25
2023-06-17T10:44:03.666Z,2.97
2023-06-17T10:46:05.991Z,3.03
2023-06-17T10:48:35.301Z,3.10
2023-06-17T10:50:37.581Z,3.25
2023-06-17T10:52:40.695Z,3.20
2023-06-17T10:54:47.412Z,3.75
2023-06-17T10:56:53.091Z,3.45
2023-06-17T10:58:55.723Z,4.05
2023-06-17T11:01:05.189Z,3.50
2023-06-17T11:03:10.375Z,3.17
2023-06-17T11:05:12.759Z,3.40
2023-06-17T11:07:16.698Z,3.42
2023-06-17T11:09:19.884Z,4.05
2023-06-17T11:11:22.343Z,4.00
2023-06-17T11:13:24.681Z,3.60
2023-06-17T11:15:27.160Z,3.38
2023-06-17T11:17:29.493Z,3.47
2023-06-17T11:19:32.334Z,3.40
2023-06-17T11:21:34.635Z,3.35
2023-06-17T11:23:39.835Z,3.28
2023-06-17T11:25:45.510Z,3.70
2023-06-17T11:27:48.458Z,3.47
2023-06-17T11:29:50.666Z,3.88
2023-06-17T11:31:53.209Z,3.55
2023-06-17T11:33:59.690Z,3.75
2023-06-17T11:36:03.704Z,3.60
2023-06-17T11:38:06.452Z,3.85
2023-06-17T11:40:12.296Z,3.90
2023-06-17T11:42:14.534Z,4.20
2023-06-17T11:44:16.746Z,3.50
2023-06-17T11:46:22.153Z,3.53
2023-06-17T11:48:34.974Z,4.20
2023-06-17T11:50:38.726Z,4.43
2023-06-17T11:52:41.013Z,4.53
2023-06-17T11:54:47.227Z,3.83
2023-06-17T11:56:51.136Z,3.97
2023-06-17T11:58:54.309Z,3.45
2023-06-17T12:01:00.833Z,4.00
2023-06-17T12:03:05.153Z,4.20
2023-06-17T12:05:07.794Z,3.38
2023-06-17T12:07:10.103Z,3.45
2023-06-17T12:09:15.357Z,3.40
2023-06-17T12:11:27.433Z,3.35
2023-06-17T12:13:39.224Z,3.08
2023-06-17T12:15:41.763Z,3.08
2023-06-17T12:17:46.758Z,3.20
2023-06-17T12:19:49.817Z,4.28
2023-06-17T12:21:52.642Z,3.10
2023-06-17T12:23:57.407Z,4.03
2023-06-17T12:25:59.522Z,3.95
2023-06-17T12:28:03.282Z,3.60
2023-06-17T12:30:08.525Z,3.50
2023-06-17T12:32:11.050Z,3.60
2023-06-17T12:34:13.228Z,3.88
2023-06-17T12:36:17.132Z,3.53
2023-06-17T12:38:19.797Z,3.83
2023-06-17T12:40:22.368Z,3.50
2023-06-17T12:42:24.869Z,3.72
2023-06-17T12:44:27.342Z,3.38
2023-06-17T12:46:30.316Z,3.40
2023-06-17T12:48:35.301Z,4.18
2023-06-17T12:50:37.661Z,3.60
2023-06-17T12:52:40.028Z,3.60
2023-06-17T12:54:46.055Z,4.00
2023-06-17T12:56:48.958Z,3.78
2023-06-17T12:58:51.133Z,3.72
2023-06-17T13:00:55.085Z,3.72
2023-06-17T13:02:57.445Z,4.00
2023-06-17T13:04:59.604Z,3.58
2023-06-17T13:07:02.692Z,3.95
2023-06-17T13:09:05.417Z,4.20
2023-06-17T13:11:07.877Z,3.05
2023-06-17T13:13:10.626Z,3.53
2023-06-17T13:15:12.839Z,3.90
2023-06-17T13:17:15.243Z,4.10
2023-06-17T13:19:18.956Z,4.00
2023-06-17T13:21:21.174Z,3.88
2023-06-17T13:23:23.551Z,3.50
2023-06-17T13:25:26.214Z,4.15
2023-06-17T13:27:30.310Z,4.93
2023-06-17T13:29:32.469Z,4.00
2023-06-17T13:31:35.443Z,4.07
2023-06-17T13:33:39.245Z,4.18
2023-06-17T13:35:41.416Z,4.30
2023-06-17T13:37:43.703Z,4.35
2023-06-17T13:39:46.222Z,3.70
2023-06-17T13:41:48.539Z,4.22
2023-06-17T13:43:50.727Z,4.22
2023-06-17T13:45:53.816Z,4.00
2023-06-17T13:47:56.153Z,4.20
2023-06-17T13:49:58.771Z,4.00
2023-06-17T13:52:03.773Z,3.90
2023-06-17T13:54:06.123Z,3.97
2023-06-17T13:56:08.243Z,4.20
2023-06-17T13:58:10.445Z,4.43
2023-06-17T14:00:13.536Z,3.90
2023-06-17T14:02:16.042Z,4.00
2023-06-17T14:04:18.354Z,4.15
2023-06-17T14:06:21.369Z,3.85
2023-06-17T14:08:24.218Z,4.20
2023-06-17T14:10:26.630Z,4.50
2023-06-17T14:12:28.925Z,4.22
2023-06-17T14:14:31.306Z,4.13
2023-06-17T14:16:34.336Z,4.50
2023-06-17T14:18:36.792Z,4.05
2023-06-17T14:20:39.179Z,4.80
2023-06-17T14:22:41.440Z,4.10
2023-06-17T14:24:43.828Z,5.43
2023-06-17T14:26:46.071Z,4.95
2023-06-17T14:28:48.317Z,5.15
2023-06-17T14:30:52.402Z,4.40
2023-06-17T14:32:54.618Z,4.53
2023-06-17T14:34:57.804Z,4.40
2023-06-17T14:37:00.027Z,4.95
2023-06-17T14:39:02.490Z,5.00
2023-06-17T14:41:04.862Z,5.18
2023-06-17T14:43:08.692Z,4.60
2023-06-17T14:45:12.283Z,4.28
2023-06-17T14:47:14.613Z,4.68
2023-06-17T14:49:16.850Z,4.68
2023-06-17T14:51:18.994Z,5.88
2023-06-17T14:53:29.512Z,4.20
2023-06-17T14:55:31.843Z,4.40
2023-06-17T14:57:34.231Z,4.63
2023-06-17T14:59:37.302Z,4.63
2023-06-17T15:01:40.838Z,5.13
2023-06-17T15:03:43.410Z,4.88
2023-06-17T15:05:45.922Z,4.28
2023-06-17T15:07:50.152Z,5.05
2023-06-17T15:09:52.386Z,4.97
2023-06-17T15:11:56.610Z,5.28
2023-06-17T15:13:58.708Z,4.30
2023-06-17T15:16:00.930Z,4.55
2023-06-17T15:18:03.225Z,5.00
2023-06-17T15:20:06.902Z,4.93
2023-06-17T15:22:09.268Z,5.18
2023-06-17T15:24:12.577Z,5.90
2023-06-17T15:26:14.687Z,5.28
2023-06-17T15:28:16.865Z,5.20
2023-06-17T15:30:21.983Z,5.07
2023-06-17T15:32:24.288Z,4.60
2023-06-17T15:34:26.484Z,4.65
2023-06-17T15:36:29.778Z,5.45
2023-06-17T15:38:32.054Z,5.38
2023-06-17T15:40:34.417Z,5.07
2023-06-17T15:42:37.438Z,5.05
2023-06-17T15:44:39.795Z,4.80
2023-06-17T15:46:42.527Z,5.13
2023-06-17T15:48:44.877Z,4.80
2023-06-17T15:50:47.523Z,5.63
2023-06-17T15:52:49.676Z,4.38
2023-06-17T15:54:54.324Z,4.80
2023-06-17T15:56:56.628Z,5.35
2023-06-17T15:59:01.043Z,5.07
2023-06-17T16:01:05.386Z,4.93
2023-06-17T16:03:09.057Z,4.88
2023-06-17T16:05:12.062Z,5.43
2023-06-17T16:07:15.640Z,5.50
2023-06-17T16:09:18.234Z,5.50
2023-06-17T16:11:20.398Z,4.05
2023-06-17T16:13:23.922Z,5.25
2023-06-17T16:15:26.038Z,4.70
2023-06-17T16:17:28.253Z,5.10
2023-06-17T16:19:33.208Z,5.45
2023-06-17T16:21:36.850Z,5.82
2023-06-17T16:23:39.098Z,5.15
2023-06-17T16:25:54.907Z,5.55
2023-06-17T16:27:58.217Z,5.45
2023-06-17T16:30:00.422Z,6.10
2023-06-17T16:32:02.719Z,5.72
2023-06-17T16:34:05.446Z,6.05
2023-06-17T16:36:07.697Z,5.13
2023-06-17T16:38:09.996Z,5.30
2023-06-17T16:40:12.559Z,5.65
2023-06-17T16:42:14.996Z,6.15
2023-06-17T16:44:17.537Z,5.85
2023-06-17T16:46:19.890Z,6.15
2023-06-17T16:48:22.295Z,5.50
2023-06-17T16:50:24.795Z,6.55
2023-06-17T16:52:27.756Z,6.05
2023-06-17T16:54:30.059Z,6.38
2023-06-17T16:56:32.280Z,5.95
2023-06-17T16:58:34.780Z,6.35
2023-06-17T17:00:37.041Z,6.30
2023-06-17T17:02:39.204Z,6.45
2023-06-17T17:04:41.454Z,6.03
2023-06-17T17:06:44.211Z,6.75
2023-06-17T17:08:49.993Z,6.25
2023-06-17T17:10:52.649Z,5.65
2023-06-17T17:12:54.965Z,6.13
2023-06-17T17:14:57.191Z,5.93
2023-06-17T17:17:00.286Z,6.15
2023-06-17T17:19:02.617Z,6.38
2023-06-17T17:21:04.819Z,5.78
2023-06-17T17:23:07.881Z,5.60
2023-06-17T17:25:11.429Z,5.45
2023-06-17T17:27:13.669Z,5.85
2023-06-17T17:29:15.916Z,5.90
2023-06-17T17:31:18.030Z,5.28
2023-06-17T17:33:23.676Z,4.72
2023-06-17T17:35:26.760Z,5.57
2023-06-17T17:37:29.157Z,5.63
2023-06-17T17:39:31.426Z,5.85
2023-06-17T17:41:33.541Z,5.63
2023-06-17T17:43:35.922Z,6.63
2023-06-17T17:45:38.221Z,5.40
2023-06-17T17:47:40.490Z,5.10
2023-06-17T17:49:42.776Z,5.45
2023-06-17T17:51:45.098Z,5.75
2023-06-17T17:53:47.384Z,5.95
2023-06-17T17:55:49.825Z,5.13
2023-06-17T17:57:52.402Z,5.57
2023-06-17T17:59:54.602Z,4.90
2023-06-17T18:01:56.726Z,5.30
2023-06-17T18:03:59.117Z,5.18
2023-06-17T18:06:01.336Z,5.60
2023-06-17T18:08:03.599Z,5.47
2023-06-17T18:10:06.729Z,6.25
2023-06-17T18:12:09.004Z,5.13
2023-06-17T18:14:11.477Z,5.05
2023-06-17T18:16:13.877Z,5.78
2023-06-17T18:18:16.219Z,5.82
2023-06-17T18:20:18.627Z,5.70
2023-06-17T18:22:21.029Z,6.00
2023-06-17T18:24:23.179Z,5.50
2023-06-17T18:26:26.017Z,5.30
2023-06-17T18:28:28.275Z,5.75
2023-06-17T18:30:30.846Z,4.82
2023-06-17T18:32:33.118Z,4.80
2023-06-17T18:34:35.384Z,6.13
2023-06-17T18:36:37.831Z,6.07
2023-06-17T18:38:40.235Z,5.82
2023-06-17T18:40:42.678Z,5.85
2023-06-17T18:42:45.048Z,5.72
2023-06-17T18:44:47.395Z,5.38
2023-06-17T18:46:49.726Z,5.45
2023-06-17T18:48:53.480Z,5.30
2023-06-17T18:50:56.041Z,5.47
2023-06-17T18:52:58.183Z,5.00
2023-06-17T18:55:00.494Z,5.72
2023-06-17T18:57:02.688Z,6.18
2023-06-17T18:59:05.326Z,5.95
2023-06-17T19:01:07.697Z,5.68
2023-06-17T19:03:10.086Z,5.88
2023-06-17T19:05:12.436Z,6.22
2023-06-17T19:07:15.121Z,6.72
2023-06-17T19:09:17.562Z,6.18
2023-06-17T19:11:20.326Z,6.18
2023-06-17T19:13:22.977Z,5.90
2023-06-17T19:15:26.587Z,6.18
2023-06-17T19:17:28.743Z,6.00
2023-06-17T19:19:30.988Z,6.70
2023-06-17T19:21:33.332Z,6.50
2023-06-17T19:23:35.685Z,5.75
2023-06-17T19:25:38.359Z,6.72
2023-06-17T19:27:40.689Z,7.07
2023-06-17T19:29:44.228Z,6.18
2023-06-17T19:31:46.441Z,6.47
2023-06-17T19:33:48.730Z,6.30
2023-06-17T19:35:51.186Z,6.32
2023-06-17T19:37:53.488Z,7.20
2023-06-17T19:39:55.970Z,7.18
2023-06-17T19:41:58.152Z,6.82
2023-06-17T19:44:00.365Z,7.03
2023-06-17T19:46:03.872Z,6.80
2023-06-17T19:48:06.424Z,6.53
2023-06-17T19:50:09.125Z,7.60
2023-06-17T19:52:11.275Z,7.13
2023-06-17T19:54:14.136Z,7.50
2023-06-17T19:56:17.058Z,7.30
2023-06-17T19:58:19.780Z,8.18
2023-06-17T20:00:22.288Z,7.28
2023-06-17T20:02:24.892Z,8.27
2023-06-17T20:04:27.239Z,8.45
2023-06-17T20:06:30.334Z,8.32
2023-06-17T20:08:32.570Z,8.02
2023-06-17T20:10:34.971Z,8.02
2023-06-17T20:12:37.334Z,8.93
2023-06-17T20:14:39.578Z,8.98
2023-06-17T20:16:42.212Z,9.75
2023-06-17T20:18:44.436Z,8.80
2023-06-17T20:20:46.710Z,9.95
2023-06-17T20:22:49.004Z,9.27
2023-06-17T20:24:51.451Z,8.90
2023-06-17T20:26:53.656Z,9.27
2023-06-17T20:28:56.128Z,9.05
2023-06-17T20:30:58.523Z,8.68
2023-06-17T20:33:00.734Z,10.13
2023-06-17T20:35:03.775Z,9.38
2023-06-17T20:37:06.952Z,9.73
2023-06-17T20:39:10.907Z,9.88
2023-06-17T20:41:13.141Z,10.10
2023-06-17T20:43:16.100Z,9.45
2023-06-17T20:45:18.678Z,9.20
2023-06-17T20:47:20.991Z,9.80
2023-06-17T20:49:23.674Z,8.77
2023-06-17T20:51:26.669Z,9.13
2023-06-17T20:53:29.010Z,8.77
2023-06-17T20:55:32.083Z,10.00
2023-06-17T20:57:34.487Z,9.50
2023-06-17T20:59:36.781Z,10.25
2023-06-17T21:01:39.118Z,9.68
2023-06-17T21:03:41.744Z,10.30
2023-06-17T21:05:43.951Z,9.55
2023-06-17T21:07:46.515Z,9.80
2023-06-17T21:09:49.410Z,10.32
2023-06-17T21:11:52.702Z,10.07
2023-06-17T21:13:54.793Z,10.02
2023-06-17T21:15:57.064Z,9.48
2023-06-17T21:17:59.334Z,9.85
2023-06-17T21:20:01.673Z,9.85
2023-06-17T21:22:05.166Z,11.05
2023-06-17T21:24:07.387Z,11.50
2023-06-17T21:26:09.758Z,9.95
2023-06-17T21:28:12.148Z,10.57
2023-06-17T21:30:14.771Z,10.82
2023-06-17T21:32:16.911Z,10.48
2023-06-17T21:34:19.227Z,9.70
2023-06-17T21:36:21.843Z,9.88
2023-06-17T21:38:24.704Z,10.40
2023-06-17T21:40:26.922Z,10.25
2023-06-17T21:42:29.095Z,10.32
2023-06-17T21:44:34.071Z,10.68
2023-06-17T21:46:37.791Z,11.38
2023-06-17T21:48:43.260Z,11.00
2023-06-17T21:50:45.827Z,11.20
2023-06-17T21:52:47.952Z,11.93
2023-06-17T21:54:50.261Z,11.38
2023-06-17T21:56:52.867Z,11.27
2023-06-17T21:58:55.216Z,11.00
2023-06-17T22:00:57.918Z,11.15
2023-06-17T22:03:00.300Z,11.45
2023-06-17T22:05:03.581Z,11.80
2023-06-17T22:07:06.537Z,10.98
2023-06-17T22:09:09.091Z,10.82
2023-06-17T22:11:13.499Z,12.95
2023-06-17T22:13:16.296Z,11.02
2023-06-17T22:15:18.703Z,11.23
2023-06-17T22:17:21.194Z,11.10
2023-06-17T22:19:23.433Z,10.52
2023-06-17T22:21:25.690Z,11.95
2023-06-17T22:23:27.858Z,11.35
2023-06-17T22:25:30.069Z,10.05
2023-06-17T22:27:32.503Z,10.75
2023-06-17T22:29:34.804Z,10.60
2023-06-17T22:31:37.364Z,10.52
2023-06-17T22:33:40.248Z,10.80
2023-06-17T22:35:42.812Z,11.25
2023-06-17T22:37:45.266Z,10.57
2023-06-17T22:39:47.689Z,11.02
2023-06-17T22:41:50.089Z,10.75
2023-06-17T22:43:52.855Z,10.80
2023-06-17T22:45:55.336Z,10.98
2023-06-17T22:47:57.748Z,10.57
2023-06-17T22:50:00.018Z,10.20
2023-06-17T22:52:02.257Z,11.65
2023-06-17T22:54:04.672Z,10.88
2023-06-17T22:56:07.087Z,10.05
2023-06-17T22:58:09.487Z,11.25
2023-06-17T23:00:12.697Z,9.60
2023-06-17T23:02:15.068Z,9.90
2023-06-17T23:04:17.438Z,9.63
2023-06-17T23:06:19.561Z,10.60
2023-06-17T23:08:21.855Z,10.15
2023-06-17T23:10:24.505Z,9.43
2023-06-17T23:12:26.993Z,9.05
2023-06-17T23:14:29.141Z,9.82
2023-06-17T23:16:31.303Z,9.20
2023-06-17T23:18:33.646Z,9.02
2023-06-17T23:20:37.282Z,9.05
2023-06-17T23:22:39.533Z,8.70
2023-06-17T23:24:42.967Z,8.88
2023-06-17T23:26:46.162Z,8.32
2023-06-17T23:28:50.131Z,9.13
2023-06-17T23:30:53.026Z,8.52
2023-06-17T23:32:55.294Z,9.15
2023-06-17T23:34:57.803Z,8.27
2023-06-17T23:37:00.636Z,8.43
2023-06-17T23:39:02.940Z,8.52
2023-06-17T23:41:05.104Z,8.45
2023-06-17T23:43:07.415Z,8.98
2023-06-17T23:45:13.170Z,8.88
2023-06-17T23:47:18.623Z,8.30
2023-06-17T23:49:20.893Z,9.13
2023-06-17T23:51:23.621Z,8.55
2023-06-17T23:53:26.974Z,8.80
2023-06-17T23:55:29.101Z,8.10
2023-06-17T23:57:31.295Z,8.55
2023-06-17T23:59:34.134Z,8.50
